sensor_id;sensor_type;location;lat;lon;timestamp;P1;durP1;ratioP1;P2;durP2;ratioP2
40533;SDS011;26233;51.894;10.192;2024-03-02T00:01:20;11.20;;;9.85;;
40533;SDS011;26233;51.894;10.192;2024-03-02T00:03:47;10.63;;;9.52;;
40533;SDS011;26233;51.894;10.192;2024-03-02T00:06:15;9.88;;;8.70;;
40533;SDS011;26233;51.894;10.192;2024-03-02T00:08:47;10.40;;;9.30;;
40533;SDS011;26233;51.894;10.192;2024-03-02T00:11:15;10.90;;;9.80;;
40533;SDS011;26233;51.894;10.192;2024-03-02T00:13:44;10.45;;;9.20;;
40533;SDS011;26233;51.894;10.192;2024-03-02T00:16:12;9.52;;;8.50;;
40533;SDS011;26233;51.894;10.192;2024-03-02T00:18:41;11.40;;;9.82;;
40533;SDS011;26233;51.894;10.192;2024-03-02T00:21:09;10.18;;;9.18;;
40533;SDS011;26233;51.894;10.192;2024-03-02T00:23:38;11.80;;;10.20;;
40533;SDS011;26233;51.894;10.192;2024-03-02T00:26:07;10.98;;;9.85;;
40533;SDS011;26233;51.894;10.192;2024-03-02T00:28:39;12.02;;;10.82;;
40533;SDS011;26233;51.894;10.192;2024-03-02T00:31:09;10.65;;;9.55;;
40533;SDS011;26233;51.894;10.192;2024-03-02T00:33:39;10.63;;;9.57;;
40533;SDS011;26233;51.894;10.192;2024-03-02T00:36:08;11.57;;;10.40;;
40533;SDS011;26233;51.894;10.192;2024-03-02T00:38:44;10.65;;;9.55;;
40533;SDS011;26233;51.894;10.192;2024-03-02T00:41:19;10.73;;;9.63;;
40533;SDS011;26233;51.894;10.192;2024-03-02T00:43:59;10.40;;;9.40;;
40533;SDS011;26233;51.894;10.192;2024-03-02T00:46:27;10.93;;;9.82;;
40533;SDS011;26233;51.894;10.192;2024-03-02T00:48:57;11.32;;;10.13;;
40533;SDS011;26233;51.894;10.192;2024-03-02T00:51:26;11.32;;;9.98;;
40533;SDS011;26233;51.894;10.192;2024-03-02T00:53:58;11.80;;;10.43;;
40533;SDS011;26233;51.894;10.192;2024-03-02T00:56:30;11.60;;;10.35;;
40533;SDS011;26233;51.894;10.192;2024-03-02T00:58:59;10.48;;;9.45;;
40533;SDS011;26233;51.894;10.192;2024-03-02T01:01:26;11.30;;;10.00;;
40533;SDS011;26233;51.894;10.192;2024-03-02T01:03:53;11.23;;;10.02;;
40533;SDS011;26233;51.894;10.192;2024-03-02T01:06:21;11.10;;;9.93;;
40533;SDS011;26233;51.894;10.192;2024-03-02T01:08:48;12.52;;;10.70;;
40533;SDS011;26233;51.894;10.192;2024-03-02T01:11:16;10.98;;;9.75;;
40533;SDS011;26233;51.894;10.192;2024-03-02T01:13:45;10.65;;;9.55;;
40533;SDS011;26233;51.894;10.192;2024-03-02T01:16:13;10.48;;;9.38;;
40533;SDS011;26233;51.894;10.192;2024-03-02T01:18:41;11.20;;;10.00;;
40533;SDS011;26233;51.894;10.192;2024-03-02T01:21:09;10.80;;;9.65;;
40533;SDS011;26233;51.894;10.192;2024-03-02T01:23:36;10.82;;;9.73;;
40533;SDS011;26233;51.894;10.192;2024-03-02T01:26:03;10.55;;;9.45;;
40533;SDS011;26233;51.894;10.192;2024-03-02T01:28:31;11.65;;;9.85;;
40533;SDS011;26233;51.894;10.192;2024-03-02T01:30:59;11.65;;;10.45;;
40533;SDS011;26233;51.894;10.192;2024-03-02T01:33:27;10.65;;;9.43;;
40533;SDS011;26233;51.894;10.192;2024-03-02T01:35:54;11.43;;;10.23;;
40533;SDS011;26233;51.894;10.192;2024-03-02T01:38:21;12.30;;;11.00;;
40533;SDS011;26233;51.894;10.192;2024-03-02T01:40:48;11.23;;;10.15;;
40533;SDS011;26233;51.894;10.192;2024-03-02T01:43:17;11.30;;;9.88;;
40533;SDS011;26233;51.894;10.192;2024-03-02T01:45:44;11.38;;;10.13;;
40533;SDS011;26233;51.894;10.192;2024-03-02T01:48:12;10.98;;;9.77;;
40533;SDS011;26233;51.894;10.192;2024-03-02T01:50:40;10.85;;;9.75;;
40533;SDS011;26233;51.894;10.192;2024-03-02T01:53:07;10.88;;;9.77;;
40533;SDS011;26233;51.894;10.192;2024-03-02T01:55:35;12.45;;;10.60;;
40533;SDS011;26233;51.894;10.192;2024-03-02T01:58:03;11.52;;;10.32;;
40533;SDS011;26233;51.894;10.192;2024-03-02T02:00:30;11.27;;;9.80;;
40533;SDS011;26233;51.894;10.192;2024-03-02T02:02:57;11.30;;;10.15;;
40533;SDS011;26233;51.894;10.192;2024-03-02T02:05:26;11.88;;;10.68;;
40533;SDS011;26233;51.894;10.192;2024-03-02T02:07:53;12.02;;;9.98;;
40533;SDS011;26233;51.894;10.192;2024-03-02T02:10:20;10.82;;;9.73;;
40533;SDS011;26233;51.894;10.192;2024-03-02T02:12:48;11.40;;;10.20;;
40533;SDS011;26233;51.894;10.192;2024-03-02T02:15:21;12.13;;;10.10;;
40533;SDS011;26233;51.894;10.192;2024-03-02T02:17:50;10.98;;;9.88;;
40533;SDS011;26233;51.894;10.192;2024-03-02T02:20:17;12.68;;;11.05;;
40533;SDS011;26233;51.894;10.192;2024-03-02T02:22:57;10.50;;;9.40;;
40533;SDS011;26233;51.894;10.192;2024-03-02T02:25:26;11.65;;;10.43;;
40533;SDS011;26233;51.894;10.192;2024-03-02T02:27:54;12.80;;;10.80;;
40533;SDS011;26233;51.894;10.192;2024-03-02T02:30:22;12.63;;;10.77;;
40533;SDS011;26233;51.894;10.192;2024-03-02T02:32:51;12.80;;;10.70;;
40533;SDS011;26233;51.894;10.192;2024-03-02T02:35:19;12.32;;;10.82;;
40533;SDS011;26233;51.894;10.192;2024-03-02T02:37:46;11.32;;;9.90;;
40533;SDS011;26233;51.894;10.192;2024-03-02T02:40:15;11.95;;;10.27;;
40533;SDS011;26233;51.894;10.192;2024-03-02T02:42:44;11.02;;;9.60;;
40533;SDS011;26233;51.894;10.192;2024-03-02T02:45:11;10.65;;;9.55;;
40533;SDS011;26233;51.894;10.192;2024-03-02T02:47:39;10.80;;;9.68;;
40533;SDS011;26233;51.894;10.192;2024-03-02T02:50:07;11.25;;;9.93;;
40533;SDS011;26233;51.894;10.192;2024-03-02T02:52:37;10.77;;;9.68;;
40533;SDS011;26233;51.894;10.192;2024-03-02T02:55:06;10.80;;;9.70;;
40533;SDS011;26233;51.894;10.192;2024-03-02T02:57:37;10.82;;;9.68;;
40533;SDS011;26233;51.894;10.192;2024-03-02T03:00:08;11.05;;;9.82;;
40533;SDS011;26233;51.894;10.192;2024-03-02T03:02:39;11.27;;;10.07;;
40533;SDS011;26233;51.894;10.192;2024-03-02T03:05:08;11.15;;;9.77;;
40533;SDS011;26233;51.894;10.192;2024-03-02T03:07:36;10.48;;;9.38;;
40533;SDS011;26233;51.894;10.192;2024-03-02T03:10:05;10.20;;;9.15;;
40533;SDS011;26233;51.894;10.192;2024-03-02T03:12:34;10.68;;;9.20;;
40533;SDS011;26233;51.894;10.192;2024-03-02T03:15:03;10.10;;;8.98;;
40533;SDS011;26233;51.894;10.192;2024-03-02T03:17:32;9.63;;;8.73;;
40533;SDS011;26233;51.894;10.192;2024-03-02T03:19:59;10.60;;;9.50;;
40533;SDS011;26233;51.894;10.192;2024-03-02T03:22:27;9.55;;;8.55;;
40533;SDS011;26233;51.894;10.192;2024-03-02T03:24:55;9.52;;;8.48;;
40533;SDS011;26233;51.894;10.192;2024-03-02T03:27:22;10.10;;;8.77;;
40533;SDS011;26233;51.894;10.192;2024-03-02T03:29:50;9.95;;;8.95;;
40533;SDS011;26233;51.894;10.192;2024-03-02T03:32:18;9.77;;;8.77;;
40533;SDS011;26233;51.894;10.192;2024-03-02T03:34:45;9.65;;;8.65;;
40533;SDS011;26233;51.894;10.192;2024-03-02T03:37:13;10.38;;;8.88;;
40533;SDS011;26233;51.894;10.192;2024-03-02T03:39:40;11.18;;;9.93;;
40533;SDS011;26233;51.894;10.192;2024-03-02T03:42:07;10.35;;;9.27;;
40533;SDS011;26233;51.894;10.192;2024-03-02T03:44:35;9.63;;;8.63;;
40533;SDS011;26233;51.894;10.192;2024-03-02T03:47:03;10.25;;;9.25;;
40533;SDS011;26233;51.894;10.192;2024-03-02T03:49:31;9.77;;;8.68;;
40533;SDS011;26233;51.894;10.192;2024-03-02T03:51:58;10.02;;;8.88;;
40533;SDS011;26233;51.894;10.192;2024-03-02T03:54:25;9.32;;;8.43;;
40533;SDS011;26233;51.894;10.192;2024-03-02T03:56:53;9.48;;;8.40;;
40533;SDS011;26233;51.894;10.192;2024-03-02T03:59:21;9.45;;;8.50;;
40533;SDS011;26233;51.894;10.192;2024-03-02T04:01:49;10.60;;;8.98;;
40533;SDS011;26233;51.894;10.192;2024-03-02T04:04:17;9.38;;;8.45;;
40533;SDS011;26233;51.894;10.192;2024-03-02T04:06:44;8.95;;;8.05;;
40533;SDS011;26233;51.894;10.192;2024-03-02T04:09:12;9.52;;;8.38;;
40533;SDS011;26233;51.894;10.192;2024-03-02T04:11:39;9.52;;;8.55;;
40533;SDS011;26233;51.894;10.192;2024-03-02T04:14:06;9.20;;;8.23;;
40533;SDS011;26233;51.894;10.192;2024-03-02T04:16:33;9.45;;;8.50;;
40533;SDS011;26233;51.894;10.192;2024-03-02T04:19:01;9.48;;;8.48;;
40533;SDS011;26233;51.894;10.192;2024-03-02T04:21:30;8.70;;;7.80;;
40533;SDS011;26233;51.894;10.192;2024-03-02T04:23:57;9.18;;;8.27;;
40533;SDS011;26233;51.894;10.192;2024-03-02T04:26:25;9.57;;;8.57;;
40533;SDS011;26233;51.894;10.192;2024-03-02T04:28:52;8.77;;;7.85;;
40533;SDS011;26233;51.894;10.192;2024-03-02T04:31:20;9.60;;;8.20;;
40533;SDS011;26233;51.894;10.192;2024-03-02T04:33:47;9.38;;;8.15;;
40533;SDS011;26233;51.894;10.192;2024-03-02T04:36:14;10.05;;;9.05;;
40533;SDS011;26233;51.894;10.192;2024-03-02T04:38:43;10.38;;;9.13;;
40533;SDS011;26233;51.894;10.192;2024-03-02T04:41:10;10.00;;;8.65;;
40533;SDS011;26233;51.894;10.192;2024-03-02T04:43:37;9.70;;;8.43;;
40533;SDS011;26233;51.894;10.192;2024-03-02T04:46:05;9.30;;;8.40;;
40533;SDS011;26233;51.894;10.192;2024-03-02T04:48:33;9.90;;;8.90;;
40533;SDS011;26233;51.894;10.192;2024-03-02T04:51:00;10.00;;;8.93;;
40533;SDS011;26233;51.894;10.192;2024-03-02T04:53:27;9.43;;;8.50;;
40533;SDS011;26233;51.894;10.192;2024-03-02T04:55:56;9.48;;;8.57;;
40533;SDS011;26233;51.894;10.192;2024-03-02T04:58:40;9.02;;;8.13;;
40533;SDS011;26233;51.894;10.192;2024-03-02T05:01:08;8.93;;;8.02;;
40533;SDS011;26233;51.894;10.192;2024-03-02T05:03:35;9.18;;;8.18;;
40533;SDS011;26233;51.894;10.192;2024-03-02T05:06:03;10.20;;;8.20;;
40533;SDS011;26233;51.894;10.192;2024-03-02T05:08:31;8.90;;;8.00;;
40533;SDS011;26233;51.894;10.192;2024-03-02T05:10:59;10.18;;;8.93;;
40533;SDS011;26233;51.894;10.192;2024-03-02T05:13:47;9.63;;;8.02;;
40533;SDS011;26233;51.894;10.192;2024-03-02T05:16:14;10.35;;;9.05;;
40533;SDS011;26233;51.894;10.192;2024-03-02T05:18:41;10.02;;;9.02;;
40533;SDS011;26233;51.894;10.192;2024-03-02T05:21:08;9.38;;;8.38;;
40533;SDS011;26233;51.894;10.192;2024-03-02T05:23:36;9.40;;;8.40;;
40533;SDS011;26233;51.894;10.192;2024-03-02T05:26:05;9.60;;;8.60;;
40533;SDS011;26233;51.894;10.192;2024-03-02T05:28:32;9.55;;;8.40;;
40533;SDS011;26233;51.894;10.192;2024-03-02T05:30:59;9.15;;;8.25;;
40533;SDS011;26233;51.894;10.192;2024-03-02T05:33:26;9.85;;;8.85;;
40533;SDS011;26233;51.894;10.192;2024-03-02T05:35:56;8.95;;;8.05;;
40533;SDS011;26233;51.894;10.192;2024-03-02T05:38:23;10.27;;;9.18;;
40533;SDS011;26233;51.894;10.192;2024-03-02T05:40:50;9.40;;;8.43;;
40533;SDS011;26233;51.894;10.192;2024-03-02T05:43:19;9.90;;;8.82;;
40533;SDS011;26233;51.894;10.192;2024-03-02T05:45:46;9.48;;;8.48;;
40533;SDS011;26233;51.894;10.192;2024-03-02T05:48:14;10.05;;;8.55;;
40533;SDS011;26233;51.894;10.192;2024-03-02T05:50:41;9.70;;;8.45;;
40533;SDS011;26233;51.894;10.192;2024-03-02T05:53:09;8.88;;;7.97;;
40533;SDS011;26233;51.894;10.192;2024-03-02T05:55:36;8.77;;;7.88;;
40533;SDS011;26233;51.894;10.192;2024-03-02T05:58:03;9.18;;;8.10;;
40533;SDS011;26233;51.894;10.192;2024-03-02T06:00:49;9.95;;;8.00;;
40533;SDS011;26233;51.894;10.192;2024-03-02T06:03:16;9.23;;;8.15;;
40533;SDS011;26233;51.894;10.192;2024-03-02T06:05:43;9.40;;;8.50;;
40533;SDS011;26233;51.894;10.192;2024-03-02T06:08:10;9.50;;;8.43;;
40533;SDS011;26233;51.894;10.192;2024-03-02T06:10:38;9.45;;;8.48;;
40533;SDS011;26233;51.894;10.192;2024-03-02T06:13:05;9.48;;;8.48;;
40533;SDS011;26233;51.894;10.192;2024-03-02T06:15:32;8.98;;;8.07;;
40533;SDS011;26233;51.894;10.192;2024-03-02T06:18:02;9.52;;;8.15;;
40533;SDS011;26233;51.894;10.192;2024-03-02T06:20:31;8.80;;;7.90;;
40533;SDS011;26233;51.894;10.192;2024-03-02T06:22:59;9.20;;;8.25;;
40533;SDS011;26233;51.894;10.192;2024-03-02T06:25:26;8.48;;;7.63;;
40533;SDS011;26233;51.894;10.192;2024-03-02T06:27:53;8.57;;;7.68;;
40533;SDS011;26233;51.894;10.192;2024-03-02T06:30:20;8.15;;;7.35;;
40533;SDS011;26233;51.894;10.192;2024-03-02T06:32:47;8.85;;;7.45;;
40533;SDS011;26233;51.894;10.192;2024-03-02T06:35:16;8.02;;;7.25;;
40533;SDS011;26233;51.894;10.192;2024-03-02T06:37:43;8.13;;;7.30;;
40533;SDS011;26233;51.894;10.192;2024-03-02T06:40:11;8.27;;;7.38;;
40533;SDS011;26233;51.894;10.192;2024-03-02T06:42:38;8.02;;;7.22;;
40533;SDS011;26233;51.894;10.192;2024-03-02T06:45:05;7.80;;;7.00;;
40533;SDS011;26233;51.894;10.192;2024-03-02T06:47:33;7.80;;;7.03;;
40533;SDS011;26233;51.894;10.192;2024-03-02T06:50:00;8.40;;;7.50;;
40533;SDS011;26233;51.894;10.192;2024-03-02T06:52:28;8.30;;;7.40;;
40533;SDS011;26233;51.894;10.192;2024-03-02T06:54:56;8.50;;;7.60;;
40533;SDS011;26233;51.894;10.192;2024-03-02T06:57:23;8.95;;;8.02;;
40533;SDS011;26233;51.894;10.192;2024-03-02T06:59:51;7.70;;;6.93;;
40533;SDS011;26233;51.894;10.192;2024-03-02T07:02:20;8.13;;;7.32;;
40533;SDS011;26233;51.894;10.192;2024-03-02T07:04:48;8.57;;;7.68;;
40533;SDS011;26233;51.894;10.192;2024-03-02T07:07:16;8.10;;;7.00;;
40533;SDS011;26233;51.894;10.192;2024-03-02T07:09:45;8.25;;;7.35;;
40533;SDS011;26233;51.894;10.192;2024-03-02T07:12:13;7.95;;;7.15;;
40533;SDS011;26233;51.894;10.192;2024-03-02T07:14:40;8.48;;;7.63;;
40533;SDS011;26233;51.894;10.192;2024-03-02T07:17:33;8.48;;;7.43;;
40533;SDS011;26233;51.894;10.192;2024-03-02T07:20:02;8.02;;;7.22;;
40533;SDS011;26233;51.894;10.192;2024-03-02T07:22:31;8.07;;;7.28;;
40533;SDS011;26233;51.894;10.192;2024-03-02T07:25:01;7.55;;;6.85;;
40533;SDS011;26233;51.894;10.192;2024-03-02T07:27:28;8.00;;;7.20;;
40533;SDS011;26233;51.894;10.192;2024-03-02T07:29:57;7.38;;;6.68;;
40533;SDS011;26233;51.894;10.192;2024-03-02T07:32:24;7.43;;;6.63;;
40533;SDS011;26233;51.894;10.192;2024-03-02T07:34:51;8.15;;;7.35;;
40533;SDS011;26233;51.894;10.192;2024-03-02T07:37:19;7.88;;;7.07;;
40533;SDS011;26233;51.894;10.192;2024-03-02T07:39:46;7.47;;;6.78;;
40533;SDS011;26233;51.894;10.192;2024-03-02T07:42:14;7.38;;;6.68;;
40533;SDS011;26233;51.894;10.192;2024-03-02T07:44:43;7.65;;;6.85;;
40533;SDS011;26233;51.894;10.192;2024-03-02T07:47:10;7.35;;;6.57;;
40533;SDS011;26233;51.894;10.192;2024-03-02T07:49:38;7.63;;;6.82;;
40533;SDS011;26233;51.894;10.192;2024-03-02T07:52:05;8.23;;;7.43;;
40533;SDS011;26233;51.894;10.192;2024-03-02T07:54:32;7.53;;;6.72;;
40533;SDS011;26233;51.894;10.192;2024-03-02T07:57:00;7.57;;;6.78;;
40533;SDS011;26233;51.894;10.192;2024-03-02T07:59:28;8.18;;;7.38;;
40533;SDS011;26233;51.894;10.192;2024-03-02T08:01:56;7.28;;;6.57;;
40533;SDS011;26233;51.894;10.192;2024-03-02T08:04:23;7.82;;;7.03;;
40533;SDS011;26233;51.894;10.192;2024-03-02T08:06:50;7.43;;;6.70;;
40533;SDS011;26233;51.894;10.192;2024-03-02T08:09:18;8.45;;;7.15;;
40533;SDS011;26233;51.894;10.192;2024-03-02T08:11:45;7.50;;;6.70;;
40533;SDS011;26233;51.894;10.192;2024-03-02T08:14:12;7.20;;;6.53;;
40533;SDS011;26233;51.894;10.192;2024-03-02T08:16:41;7.80;;;7.00;;
40533;SDS011;26233;51.894;10.192;2024-03-02T08:19:08;7.82;;;7.03;;
40533;SDS011;26233;51.894;10.192;2024-03-02T08:21:36;8.25;;;6.40;;
40533;SDS011;26233;51.894;10.192;2024-03-02T08:24:03;8.02;;;7.22;;
40533;SDS011;26233;51.894;10.192;2024-03-02T08:26:31;8.60;;;7.20;;
40533;SDS011;26233;51.894;10.192;2024-03-02T08:28:59;8.18;;;7.38;;
40533;SDS011;26233;51.894;10.192;2024-03-02T08:31:26;7.57;;;6.88;;
40533;SDS011;26233;51.894;10.192;2024-03-02T08:33:55;8.63;;;7.25;;
40533;SDS011;26233;51.894;10.192;2024-03-02T08:36:23;8.10;;;7.30;;
40533;SDS011;26233;51.894;10.192;2024-03-02T08:38:51;7.55;;;6.75;;
40533;SDS011;26233;51.894;10.192;2024-03-02T08:41:18;7.57;;;6.78;;
40533;SDS011;26233;51.894;10.192;2024-03-02T08:43:45;7.28;;;6.57;;
40533;SDS011;26233;51.894;10.192;2024-03-02T08:46:13;7.32;;;6.63;;
40533;SDS011;26233;51.894;10.192;2024-03-02T08:48:40;7.50;;;6.40;;
40533;SDS011;26233;51.894;10.192;2024-03-02T08:51:08;7.07;;;6.38;;
40533;SDS011;26233;51.894;10.192;2024-03-02T08:53:36;6.25;;;5.65;;
40533;SDS011;26233;51.894;10.192;2024-03-02T08:56:04;6.18;;;5.57;;
40533;SDS011;26233;51.894;10.192;2024-03-02T08:58:31;6.65;;;6.05;;
40533;SDS011;26233;51.894;10.192;2024-03-02T09:00:59;6.72;;;6.10;;
40533;SDS011;26233;51.894;10.192;2024-03-02T09:03:26;6.28;;;5.68;;
40533;SDS011;26233;51.894;10.192;2024-03-02T09:05:53;6.57;;;5.97;;
40533;SDS011;26233;51.894;10.192;2024-03-02T09:08:22;6.47;;;5.88;;
40533;SDS011;26233;51.894;10.192;2024-03-02T09:10:49;6.93;;;6.32;;
40533;SDS011;26233;51.894;10.192;2024-03-02T09:13:16;6.50;;;5.90;;
40533;SDS011;26233;51.894;10.192;2024-03-02T09:15:43;7.32;;;6.63;;
40533;SDS011;26233;51.894;10.192;2024-03-02T09:18:11;7.22;;;6.53;;
40533;SDS011;26233;51.894;10.192;2024-03-02T09:20:38;6.70;;;5.97;;
40533;SDS011;26233;51.894;10.192;2024-03-02T09:23:05;7.90;;;6.80;;
40533;SDS011;26233;51.894;10.192;2024-03-02T09:25:34;6.97;;;6.28;;
40533;SDS011;26233;51.894;10.192;2024-03-02T09:28:02;7.43;;;6.72;;
40533;SDS011;26233;51.894;10.192;2024-03-02T09:30:30;7.93;;;7.10;;
40533;SDS011;26233;51.894;10.192;2024-03-02T09:32:57;6.68;;;5.97;;
40533;SDS011;26233;51.894;10.192;2024-03-02T09:35:24;6.53;;;5.93;;
40533;SDS011;26233;51.894;10.192;2024-03-02T09:37:51;6.60;;;6.00;;
40533;SDS011;26233;51.894;10.192;2024-03-02T09:40:21;7.00;;;6.30;;
40533;SDS011;26233;51.894;10.192;2024-03-02T09:42:50;7.07;;;6.38;;
40533;SDS011;26233;51.894;10.192;2024-03-02T09:45:19;7.35;;;6.65;;
40533;SDS011;26233;51.894;10.192;2024-03-02T09:47:50;6.70;;;5.93;;
40533;SDS011;26233;51.894;10.192;2024-03-02T09:50:17;6.90;;;6.20;;
40533;SDS011;26233;51.894;10.192;2024-03-02T09:52:44;6.75;;;6.00;;
40533;SDS011;26233;51.894;10.192;2024-03-02T09:55:15;6.75;;;6.15;;
40533;SDS011;26233;51.894;10.192;2024-03-02T09:57:44;6.47;;;5.88;;
40533;SDS011;26233;51.894;10.192;2024-03-02T10:00:15;5.82;;;5.22;;
40533;SDS011;26233;51.894;10.192;2024-03-02T10:02:43;6.20;;;5.60;;
40533;SDS011;26233;51.894;10.192;2024-03-02T10:05:22;6.95;;;6.10;;
40533;SDS011;26233;51.894;10.192;2024-03-02T10:07:58;7.28;;;6.22;;
40533;SDS011;26233;51.894;10.192;2024-03-02T10:10:34;6.35;;;5.75;;
40533;SDS011;26233;51.894;10.192;2024-03-02T10:13:05;7.00;;;6.13;;
40533;SDS011;26233;51.894;10.192;2024-03-02T10:15:36;6.70;;;6.00;;
40533;SDS011;26233;51.894;10.192;2024-03-02T10:18:08;6.18;;;5.57;;
40533;SDS011;26233;51.894;10.192;2024-03-02T10:20:37;6.30;;;5.65;;
40533;SDS011;26233;51.894;10.192;2024-03-02T10:23:11;6.15;;;5.55;;
40533;SDS011;26233;51.894;10.192;2024-03-02T10:25:40;6.00;;;5.40;;
40533;SDS011;26233;51.894;10.192;2024-03-02T10:28:07;6.90;;;5.88;;
40533;SDS011;26233;51.894;10.192;2024-03-02T10:30:35;5.93;;;5.32;;
40533;SDS011;26233;51.894;10.192;2024-03-02T10:33:04;6.57;;;5.55;;
40533;SDS011;26233;51.894;10.192;2024-03-02T10:35:32;6.53;;;5.82;;
40533;SDS011;26233;51.894;10.192;2024-03-02T10:38:03;6.45;;;5.68;;
40533;SDS011;26233;51.894;10.192;2024-03-02T10:40:31;5.63;;;5.13;;
40533;SDS011;26233;51.894;10.192;2024-03-02T10:42:59;6.07;;;5.47;;
40533;SDS011;26233;51.894;10.192;2024-03-02T10:45:28;6.68;;;6.03;;
40533;SDS011;26233;51.894;10.192;2024-03-02T10:47:57;6.68;;;5.97;;
40533;SDS011;26233;51.894;10.192;2024-03-02T10:50:27;6.13;;;5.53;;
40533;SDS011;26233;51.894;10.192;2024-03-02T10:52:54;6.60;;;5.75;;
40533;SDS011;26233;51.894;10.192;2024-03-02T10:55:21;6.22;;;5.60;;
40533;SDS011;26233;51.894;10.192;2024-03-02T10:57:50;6.25;;;5.65;;
40533;SDS011;26233;51.894;10.192;2024-03-02T11:00:19;6.35;;;5.55;;
40533;SDS011;26233;51.894;10.192;2024-03-02T11:02:50;5.88;;;5.28;;
40533;SDS011;26233;51.894;10.192;2024-03-02T11:05:26;5.90;;;5.40;;
40533;SDS011;26233;51.894;10.192;2024-03-02T11:07:57;6.43;;;5.82;;
40533;SDS011;26233;51.894;10.192;2024-03-02T11:10:29;7.00;;;5.90;;
40533;SDS011;26233;51.894;10.192;2024-03-02T11:13:05;8.13;;;7.32;;
40533;SDS011;26233;51.894;10.192;2024-03-02T11:15:35;6.85;;;6.15;;
40533;SDS011;26233;51.894;10.192;2024-03-02T11:18:04;7.05;;;6.35;;
40533;SDS011;26233;51.894;10.192;2024-03-02T11:20:36;6.00;;;5.35;;
40533;SDS011;26233;51.894;10.192;2024-03-02T11:23:05;6.78;;;6.07;;
40533;SDS011;26233;51.894;10.192;2024-03-02T11:25:33;6.63;;;5.90;;
40533;SDS011;26233;51.894;10.192;2024-03-02T11:28:04;6.40;;;5.80;;
40533;SDS011;26233;51.894;10.192;2024-03-02T11:30:49;6.43;;;5.82;;
40533;SDS011;26233;51.894;10.192;2024-03-02T11:33:24;6.57;;;5.53;;
40533;SDS011;26233;51.894;10.192;2024-03-02T11:35:56;6.03;;;5.43;;
40533;SDS011;26233;51.894;10.192;2024-03-02T11:38:27;6.07;;;5.55;;
40533;SDS011;26233;51.894;10.192;2024-03-02T11:40:56;5.97;;;5.35;;
40533;SDS011;26233;51.894;10.192;2024-03-02T11:43:25;7.10;;;6.40;;
40533;SDS011;26233;51.894;10.192;2024-03-02T11:45:57;6.80;;;6.10;;
40533;SDS011;26233;51.894;10.192;2024-03-02T11:48:25;5.32;;;4.82;;
40533;SDS011;26233;51.894;10.192;2024-03-02T11:50:53;6.47;;;5.82;;
40533;SDS011;26233;51.894;10.192;2024-03-02T11:53:26;6.88;;;5.88;;
40533;SDS011;26233;51.894;10.192;2024-03-02T11:55:55;5.78;;;5.28;;
40533;SDS011;26233;51.894;10.192;2024-03-02T11:58:22;5.18;;;4.68;;
40533;SDS011;26233;51.894;10.192;2024-03-02T12:00:52;5.22;;;4.47;;
40533;SDS011;26233;51.894;10.192;2024-03-02T12:03:21;5.57;;;4.97;;
40533;SDS011;26233;51.894;10.192;2024-03-02T12:05:50;5.57;;;5.07;;
40533;SDS011;26233;51.894;10.192;2024-03-02T12:08:20;5.90;;;5.30;;
40533;SDS011;26233;51.894;10.192;2024-03-02T12:10:58;5.70;;;5.18;;
40533;SDS011;26233;51.894;10.192;2024-03-02T12:13:28;6.70;;;5.80;;
40533;SDS011;26233;51.894;10.192;2024-03-02T12:15:55;7.22;;;6.53;;
40533;SDS011;26233;51.894;10.192;2024-03-02T12:18:23;6.28;;;5.68;;
40533;SDS011;26233;51.894;10.192;2024-03-02T12:20:50;6.10;;;5.50;;
40533;SDS011;26233;51.894;10.192;2024-03-02T12:23:23;6.75;;;6.05;;
40533;SDS011;26233;51.894;10.192;2024-03-02T12:25:50;7.68;;;6.88;;
40533;SDS011;26233;51.894;10.192;2024-03-02T12:28:17;7.28;;;6.57;;
40533;SDS011;26233;51.894;10.192;2024-03-02T12:30:45;7.28;;;6.57;;
40533;SDS011;26233;51.894;10.192;2024-03-02T12:33:13;8.18;;;7.20;;
40533;SDS011;26233;51.894;10.192;2024-03-02T12:35:41;6.95;;;6.25;;
40533;SDS011;26233;51.894;10.192;2024-03-02T12:38:08;7.20;;;6.50;;
40533;SDS011;26233;51.894;10.192;2024-03-02T12:40:38;6.75;;;6.10;;
40533;SDS011;26233;51.894;10.192;2024-03-02T12:43:05;6.28;;;5.68;;
40533;SDS011;26233;51.894;10.192;2024-03-02T12:45:33;6.40;;;5.80;;
40533;SDS011;26233;51.894;10.192;2024-03-02T12:48:00;5.75;;;5.20;;
40533;SDS011;26233;51.894;10.192;2024-03-02T12:50:28;6.20;;;5.60;;
40533;SDS011;26233;51.894;10.192;2024-03-02T12:52:55;5.90;;;5.30;;
40533;SDS011;26233;51.894;10.192;2024-03-02T12:55:22;5.80;;;5.30;;
40533;SDS011;26233;51.894;10.192;2024-03-02T12:57:51;5.05;;;4.55;;
40533;SDS011;26233;51.894;10.192;2024-03-02T13:00:19;4.80;;;4.40;;
40533;SDS011;26233;51.894;10.192;2024-03-02T13:02:49;4.93;;;4.43;;
40533;SDS011;26233;51.894;10.192;2024-03-02T13:05:16;4.15;;;3.83;;
40533;SDS011;26233;51.894;10.192;2024-03-02T13:07:44;4.45;;;4.05;;
40533;SDS011;26233;51.894;10.192;2024-03-02T13:10:14;4.88;;;4.32;;
40533;SDS011;26233;51.894;10.192;2024-03-02T13:12:41;4.90;;;4.40;;
40533;SDS011;26233;51.894;10.192;2024-03-02T13:15:10;4.70;;;4.30;;
40533;SDS011;26233;51.894;10.192;2024-03-02T13:17:37;4.80;;;4.40;;
40533;SDS011;26233;51.894;10.192;2024-03-02T13:20:06;4.15;;;3.75;;
40533;SDS011;26233;51.894;10.192;2024-03-02T13:22:35;4.07;;;3.67;;
40533;SDS011;26233;51.894;10.192;2024-03-02T13:25:03;5.63;;;4.70;;
40533;SDS011;26233;51.894;10.192;2024-03-02T13:27:31;4.55;;;4.13;;
40533;SDS011;26233;51.894;10.192;2024-03-02T13:29:58;5.38;;;4.10;;
40533;SDS011;26233;51.894;10.192;2024-03-02T13:32:27;4.75;;;4.35;;
40533;SDS011;26233;51.894;10.192;2024-03-02T13:34:54;4.15;;;3.75;;
40533;SDS011;26233;51.894;10.192;2024-03-02T13:37:21;5.65;;;3.90;;
40533;SDS011;26233;51.894;10.192;2024-03-02T13:39:48;3.90;;;3.60;;
40533;SDS011;26233;51.894;10.192;2024-03-02T13:42:16;4.00;;;3.60;;
40533;SDS011;26233;51.894;10.192;2024-03-02T13:44:43;4.00;;;3.60;;
40533;SDS011;26233;51.894;10.192;2024-03-02T13:47:13;3.90;;;3.38;;
40533;SDS011;26233;51.894;10.192;2024-03-02T13:49:42;3.58;;;3.25;;
40533;SDS011;26233;51.894;10.192;2024-03-02T13:52:11;3.33;;;3.03;;
40533;SDS011;26233;51.894;10.192;2024-03-02T13:54:39;3.80;;;3.30;;
40533;SDS011;26233;51.894;10.192;2024-03-02T13:57:07;3.55;;;3.22;;
40533;SDS011;26233;51.894;10.192;2024-03-02T13:59:36;3.85;;;3.35;;
40533;SDS011;26233;51.894;10.192;2024-03-02T14:02:04;3.83;;;3.42;;
40533;SDS011;26233;51.894;10.192;2024-03-02T14:04:32;3.58;;;3.20;;
40533;SDS011;26233;51.894;10.192;2024-03-02T14:07:01;3.55;;;2.97;;
40533;SDS011;26233;51.894;10.192;2024-03-02T14:09:29;3.20;;;2.90;;
40533;SDS011;26233;51.894;10.192;2024-03-02T14:11:56;3.63;;;3.33;;
40533;SDS011;26233;51.894;10.192;2024-03-02T14:14:26;2.60;;;2.40;;
40533;SDS011;26233;51.894;10.192;2024-03-02T14:16:54;3.35;;;3.05;;
40533;SDS011;26233;51.894;10.192;2024-03-02T14:19:25;3.47;;;2.60;;
40533;SDS011;26233;51.894;10.192;2024-03-02T14:21:52;3.17;;;2.88;;
40533;SDS011;26233;51.894;10.192;2024-03-02T14:24:21;4.20;;;2.97;;
40533;SDS011;26233;51.894;10.192;2024-03-02T14:26:51;3.30;;;3.00;;
40533;SDS011;26233;51.894;10.192;2024-03-02T14:29:18;2.80;;;2.60;;
40533;SDS011;26233;51.894;10.192;2024-03-02T14:31:45;2.75;;;2.50;;
40533;SDS011;26233;51.894;10.192;2024-03-02T14:34:13;2.78;;;2.58;;
40533;SDS011;26233;51.894;10.192;2024-03-02T14:36:40;2.78;;;2.58;;
40533;SDS011;26233;51.894;10.192;2024-03-02T14:39:08;2.80;;;2.60;;